Aérodrome :
LOGIN :

S'inscrire | Disclaimer

   EN    FR    IT 

 










Légende :    VFR   VFR Marginal   IFR   IFR Intensif   IFR Très Intensif
Visi : 
Plafond : 
>= 8 km
>= 3000ft
5 à 8 km
1000 à 3000 ft
1500m à 5 km
500 à 1000 ft
800 à 1500m
200 à 500 ft
< 800m
< 200 ft
Symboles :   Orages  Brouillard  Fortes neiges  Fortes précipitations  Vent > 20 kt
SIGMETs :   Divers  Orages  Givrage  Turbulence  Onde Orograph.  Cendres Volcan.






- Altitude de l'aérodrome : 390 ft
- Code IATA : NQY


EGHQ - Newquay

DERNIER METAR :
  • 122050Z AUTO 06004KT 010V090 9999 FEW031/// 20/19 Q1012 RERA

METARs EXPIRÉS :
  • 122020Z AUTO VRB03KT 9999 NCD 20/19 Q1012 RERA
  • 121950Z AUTO 12002KT 9999 NCD 19/18 Q1012
  • 121920Z AUTO 26004KT 230V300 9999 NCD 19/18 Q1011
  • 121850Z AUTO VRB03KT 9999 NCD 20/18 Q1011
  • 121820Z AUTO VRB03KT 9999 NCD 20/19 Q1011

TAF TAF EGHQ
Valide du 12 à 21h jusqu'au 13 à 06h UTC


121956Z 1221/1306 30004KT 9999 FEW045
PROB30
TEMPO 1221/1306 VRB15G30KT +TSRAGR
BECMG 1301/1304 BKN004
PROB30 1301/1306 4000 BR



MET'MAP, la Météo Aéronautique d'un coup d'oeil ! - Copyright ORBIFLY Décembre 2007 - Disclaimer

ORBIFLY MET'MAP TEAM :

Programmation & Développement : Alexandra Zaïnal
Sur une idée originale de : Baudouin d'Aumeries
Assistance à la programmation : Marc-Olivier Méhu
Soutien technique & logistique : Manuel Goepfert

Contact : metmap@orbifly.com




SOURCES & CREDITS :

   NOAA